Time;durP1;ratioP1;P1;durP2;ratioP2;P2;SDS_P1;SDS_P2;PMS_P1;PMS_P2;Temp;Humidity;BMP_temperature;BMP_pressure;BME280_temperature;BME280_humidity;BME280_pressure;Samples;Min_cycle;Max_cycle;Signal;HPM_P1;HPM_P2
2021/06/26 00:00:30;;;;;;;10.32;8.23;;;15.20;99.90;;;;;;4993105;28;20252;-43
2021/06/26 00:02:59;;;;;;;6.90;6.30;;;15.30;99.90;;;;;;4992717;28;20296;-48
2021/06/26 00:05:27;;;;;;;7.60;6.90;;;15.30;99.90;;;;;;4992999;28;20230;-47
2021/06/26 00:07:55;;;;;;;7.93;6.78;;;15.30;99.90;;;;;;4992847;28;20210;-43
2021/06/26 00:10:24;;;;;;;7.32;6.63;;;15.30;99.90;;;;;;4992942;28;20252;-43
2021/06/26 00:12:52;;;;;;;7.60;6.85;;;15.30;99.90;;;;;;4992725;28;20213;-46
2021/06/26 00:15:20;;;;;;;7.80;7.03;;;15.30;99.90;;;;;;4992724;28;20224;-45
2021/06/26 00:17:48;;;;;;;8.45;7.53;;;15.30;99.90;;;;;;4992826;28;20244;-45
2021/06/26 00:20:16;;;;;;;8.98;6.85;;;15.30;99.90;;;;;;4992842;28;20224;-45
2021/06/26 00:22:43;;;;;;;8.43;7.03;;;15.30;99.90;;;;;;4992671;28;20632;-48
2021/06/26 00:25:13;;;;;;;8.20;6.88;;;15.30;99.90;;;;;;4992411;28;20264;-47
2021/06/26 00:27:42;;;;;;;7.97;7.25;;;15.30;99.90;;;;;;4992607;28;20221;-42
2021/06/26 00:30:11;;;;;;;8.05;7.28;;;15.30;99.90;;;;;;4992565;28;20701;-44
2021/06/26 00:32:39;;;;;;;7.47;6.82;;;15.20;99.90;;;;;;4992628;28;20218;-44
2021/06/26 00:35:09;;;;;;;9.55;7.93;;;15.20;99.90;;;;;;4992610;28;20206;-44
2021/06/26 00:37:37;;;;;;;7.47;6.82;;;15.10;99.90;;;;;;4992513;28;20300;-46
2021/06/26 00:40:07;;;;;;;8.95;8.02;;;15.10;99.90;;;;;;4992462;28;20419;-48
2021/06/26 00:42:37;;;;;;;9.57;8.73;;;15.00;99.90;;;;;;4992357;28;20681;-45
2021/06/26 00:45:07;;;;;;;8.02;7.25;;;15.00;99.90;;;;;;4992560;28;20230;-43
2021/06/26 00:47:36;;;;;;;8.35;7.55;;;15.00;99.90;;;;;;4992688;28;20279;-45
2021/06/26 00:50:06;;;;;;;8.93;8.07;;;15.00;99.90;;;;;;4992251;28;20673;-45
2021/06/26 00:52:34;;;;;;;9.50;7.78;;;15.00;99.90;;;;;;4992447;28;20599;-44
2021/06/26 00:55:02;;;;;;;8.88;7.97;;;15.00;99.90;;;;;;4992401;28;20756;-43
2021/06/26 00:57:33;;;;;;;8.40;7.60;;;15.00;99.90;;;;;;4992305;28;20222;-46
2021/06/26 01:00:01;;;;;;;8.73;7.82;;;15.00;99.90;;;;;;4992389;28;20210;-44
2021/06/26 01:02:30;;;;;;;8.40;7.70;;;15.00;99.90;;;;;;4992392;28;20213;-45
2021/06/26 01:04:58;;;;;;;8.68;7.65;;;15.00;99.90;;;;;;4991820;28;20261;-46
2021/06/26 01:07:26;;;;;;;9.90;8.75;;;15.00;99.90;;;;;;4992400;28;20220;-43
2021/06/26 01:09:54;;;;;;;7.63;6.93;;;15.00;99.90;;;;;;4992420;28;20301;-46
2021/06/26 01:12:22;;;;;;;9.07;7.95;;;15.00;99.90;;;;;;4992069;28;20213;-43
2021/06/26 01:14:51;;;;;;;8.52;7.65;;;15.00;99.90;;;;;;4992458;28;20265;-43
2021/06/26 01:17:20;;;;;;;8.55;7.75;;;15.00;99.90;;;;;;4995784;28;20326;-43
2021/06/26 01:19:50;;;;;;;9.98;8.32;;;14.90;99.90;;;;;;4995725;28;20305;-45
2021/06/26 01:22:21;;;;;;;9.75;8.73;;;14.90;99.90;;;;;;4995869;28;20764;-44
2021/06/26 01:24:51;;;;;;;10.02;8.88;;;14.90;99.90;;;;;;4995985;28;20260;-44
2021/06/26 01:27:19;;;;;;;11.73;9.25;;;14.90;99.90;;;;;;4995755;28;20216;-43
2021/06/26 01:29:48;;;;;;;9.07;8.15;;;14.80;99.90;;;;;;4995868;28;20309;-45
2021/06/26 01:32:16;;;;;;;9.05;7.90;;;14.80;99.90;;;;;;4995515;28;20587;-41
2021/06/26 01:34:45;;;;;;;9.20;8.35;;;14.80;99.90;;;;;;4995732;28;20234;-42
2021/06/26 01:37:13;;;;;;;9.20;8.30;;;14.70;99.90;;;;;;4995735;28;20214;-44
2021/06/26 01:39:41;;;;;;;9.68;8.77;;;14.70;99.90;;;;;;4995683;28;20220;-45
2021/06/26 01:42:11;;;;;;;9.10;8.30;;;14.70;99.90;;;;;;4995714;28;20316;-44
2021/06/26 01:44:39;;;;;;;8.40;7.60;;;14.70;99.90;;;;;;4995423;28;20214;-43
2021/06/26 01:47:08;;;;;;;8.23;7.43;;;14.70;99.90;;;;;;4995563;28;20232;-43
2021/06/26 01:49:39;;;;;;;9.30;8.50;;;14.70;99.90;;;;;;4995538;28;20264;-42
2021/06/26 01:52:09;;;;;;;9.07;8.18;;;14.70;99.90;;;;;;4995372;28;20301;-42
2021/06/26 01:54:38;;;;;;;8.65;7.82;;;14.70;99.90;;;;;;4995236;28;20313;-45
2021/06/26 01:57:08;;;;;;;10.35;7.90;;;14.70;99.90;;;;;;4995274;28;20737;-45
2021/06/26 01:59:38;;;;;;;9.38;7.85;;;14.70;99.90;;;;;;4995349;28;20304;-47
2021/06/26 02:02:06;;;;;;;8.38;7.63;;;14.60;99.90;;;;;;4995112;28;20300;-45
2021/06/26 02:04:34;;;;;;;8.70;7.82;;;14.60;99.90;;;;;;4995304;28;20210;-44
2021/06/26 02:07:02;;;;;;;7.95;7.18;;;14.60;99.90;;;;;;4995212;28;20256;-47
2021/06/26 02:09:30;;;;;;;8.32;7.53;;;14.60;99.90;;;;;;4995015;28;20296;-46
2021/06/26 02:11:58;;;;;;;8.95;7.53;;;14.50;99.90;;;;;;4995176;28;20591;-45
2021/06/26 02:14:26;;;;;;;11.57;8.05;;;14.50;99.90;;;;;;4995216;28;20304;-46
2021/06/26 02:16:55;;;;;;;7.07;6.47;;;14.50;99.90;;;;;;4995066;28;20216;-48
2021/06/26 02:19:23;;;;;;;7.35;6.65;;;14.50;99.90;;;;;;4994626;28;20245;-46
2021/06/26 02:21:51;;;;;;;8.23;7.40;;;14.50;99.90;;;;;;4995068;28;20250;-46
2021/06/26 02:24:19;;;;;;;7.65;6.95;;;14.50;99.90;;;;;;4994645;28;20214;-47
2021/06/26 02:26:47;;;;;;;7.90;7.18;;;14.50;99.90;;;;;;4994784;28;20234;-50
2021/06/26 02:29:15;;;;;;;7.50;6.80;;;14.40;99.90;;;;;;4994803;28;20296;-49
2021/06/26 02:31:43;;;;;;;7.28;6.57;;;14.30;99.90;;;;;;4994774;28;20270;-46
2021/06/26 02:34:15;;;;;;;8.52;7.00;;;14.30;99.90;;;;;;4994665;28;20681;-46
2021/06/26 02:36:43;;;;;;;7.20;6.53;;;14.30;99.90;;;;;;4994545;28;20202;-46
2021/06/26 02:39:11;;;;;;;7.90;7.10;;;14.30;99.90;;;;;;4994563;28;20210;-46
2021/06/26 02:41:39;;;;;;;7.68;6.53;;;14.30;99.90;;;;;;4994483;28;20310;-47
2021/06/26 02:44:07;;;;;;;8.65;7.85;;;14.30;99.90;;;;;;4994463;28;20571;-50
2021/06/26 02:46:35;;;;;;;8.43;7.18;;;14.30;99.90;;;;;;4994457;28;20229;-48
2021/06/26 02:49:03;;;;;;;8.20;6.90;;;14.30;99.90;;;;;;4994443;28;20220;-46
2021/06/26 02:51:32;;;;;;;7.25;6.65;;;14.30;99.90;;;;;;4994301;28;20240;-47
2021/06/26 02:54:00;;;;;;;6.80;6.20;;;14.30;99.90;;;;;;4994539;28;20220;-43
2021/06/26 02:56:28;;;;;;;7.97;6.97;;;14.20;99.90;;;;;;4994439;28;20217;-44
2021/06/26 02:58:56;;;;;;;7.88;7.07;;;14.20;99.90;;;;;;4994316;28;20213;-44
2021/06/26 03:01:24;;;;;;;7.22;6.50;;;14.20;99.90;;;;;;4994906;28;20740;-47
2021/06/26 03:03:52;;;;;;;7.68;6.97;;;14.20;99.90;;;;;;4994805;28;20217;-44
2021/06/26 03:06:20;;;;;;;6.82;6.10;;;14.20;99.90;;;;;;4994654;28;20230;-44
2021/06/26 03:08:49;;;;;;;7.43;6.70;;;14.20;99.90;;;;;;4994399;28;20214;-47
2021/06/26 03:11:17;;;;;;;6.43;5.78;;;14.20;99.90;;;;;;4994147;28;20249;-43
2021/06/26 03:13:46;;;;;;;7.07;6.43;;;14.20;99.90;;;;;;4994141;28;20214;-45
2021/06/26 03:16:15;;;;;;;6.32;5.43;;;14.20;99.90;;;;;;4993495;28;20237;-45
2021/06/26 03:18:44;;;;;;;7.15;6.43;;;14.30;99.90;;;;;;4993833;28;20658;-52
2021/06/26 03:21:12;;;;;;;6.95;6.25;;;14.20;99.90;;;;;;4993739;28;20253;-53
2021/06/26 03:23:41;;;;;;;7.57;6.88;;;14.20;99.90;;;;;;4993662;28;20213;-48
2021/06/26 03:26:10;;;;;;;8.18;7.40;;;14.20;99.90;;;;;;4993648;28;20233;-45
2021/06/26 03:28:38;;;;;;;9.65;7.93;;;14.20;99.90;;;;;;4993605;28;20232;-44
2021/06/26 03:31:10;;;;;;;9.65;8.70;;;14.20;99.90;;;;;;4993857;28;20197;-47
2021/06/26 03:33:39;;;;;;;10.30;9.30;;;14.20;99.90;;;;;;4993846;28;20214;-46
2021/06/26 03:36:07;;;;;;;9.75;8.32;;;14.30;99.90;;;;;;4993752;28;20215;-46
2021/06/26 03:38:36;;;;;;;10.00;9.10;;;14.30;99.90;;;;;;4993094;28;20305;-46
2021/06/26 03:41:04;;;;;;;9.63;8.60;;;14.30;99.90;;;;;;4993393;28;20678;-47
2021/06/26 03:43:33;;;;;;;11.13;10.02;;;14.30;99.90;;;;;;4993307;28;20318;-47
2021/06/26 03:46:01;;;;;;;8.95;8.10;;;14.30;99.90;;;;;;4993055;28;20724;-47
2021/06/26 03:48:29;;;;;;;8.88;7.97;;;14.20;99.90;;;;;;4993117;28;20616;-45
2021/06/26 03:50:59;;;;;;;11.68;8.02;;;14.30;99.90;;;;;;4993141;28;20269;-49
2021/06/26 03:53:27;;;;;;;8.98;8.13;;;14.30;99.90;;;;;;4993219;28;20301;-47
2021/06/26 03:55:55;;;;;;;7.68;6.97;;;14.40;99.90;;;;;;4992989;28;20261;-51
2021/06/26 03:58:25;;;;;;;8.07;7.28;;;14.40;99.90;;;;;;4992973;28;20665;-49
2021/06/26 04:00:56;;;;;;;7.85;7.10;;;14.40;99.90;;;;;;4993133;28;20245;-47
2021/06/26 04:03:24;;;;;;;8.57;7.78;;;14.50;99.90;;;;;;4992741;28;20221;-48
2021/06/26 04:05:52;;;;;;;7.50;6.80;;;14.50;99.90;;;;;;4992851;28;20309;-46
2021/06/26 04:08:20;;;;;;;8.75;7.30;;;14.50;99.90;;;;;;4992568;28;20229;-45
2021/06/26 04:10:48;;;;;;;8.85;7.72;;;14.50;99.90;;;;;;4992531;28;20240;-44
2021/06/26 04:13:16;;;;;;;8.43;7.65;;;14.70;99.90;;;;;;4992825;28;20300;-47
2021/06/26 04:15:44;;;;;;;7.93;7.13;;;14.70;99.90;;;;;;4992657;28;20213;-48
2021/06/26 04:18:13;;;;;;;8.40;7.43;;;14.80;99.90;;;;;;4992194;28;20325;-46
2021/06/26 04:20:41;;;;;;;8.55;7.55;;;14.90;99.90;;;;;;4991851;28;20567;-47
2021/06/26 04:23:09;;;;;;;9.20;7.97;;;14.90;99.90;;;;;;4992115;28;20272;-48
2021/06/26 04:25:37;;;;;;;8.27;7.57;;;15.00;99.90;;;;;;4992809;28;20655;-47
2021/06/26 04:28:07;;;;;;;9.25;8.35;;;15.10;99.90;;;;;;4993902;28;20590;-47
2021/06/26 04:30:36;;;;;;;9.02;8.20;;;15.20;99.90;;;;;;4992576;28;20285;-47
2021/06/26 04:33:05;;;;;;;8.48;7.68;;;15.20;99.90;;;;;;4993221;28;20214;-49
2021/06/26 04:35:34;;;;;;;8.40;7.60;;;15.30;99.90;;;;;;4992690;28;20213;-49
2021/06/26 04:38:02;;;;;;;9.77;8.02;;;15.40;99.90;;;;;;4992868;28;20206;-49
2021/06/26 04:40:30;;;;;;;10.95;7.82;;;15.40;99.90;;;;;;4992824;28;20268;-47
2021/06/26 04:42:59;;;;;;;9.00;7.97;;;15.50;99.90;;;;;;4993019;28;20210;-45
2021/06/26 04:45:27;;;;;;;11.98;8.75;;;15.60;99.90;;;;;;4992612;28;20673;-47
2021/06/26 04:48:00;;;;;;;8.55;7.70;;;15.60;99.90;;;;;;4992666;28;20317;-51
2021/06/26 04:50:28;;;;;;;8.00;7.38;;;15.60;99.90;;;;;;4995711;28;20316;-54
2021/06/26 04:52:59;;;;;;;10.15;9.15;;;15.70;99.90;;;;;;4996912;28;20574;-53
2021/06/26 04:55:27;;;;;;;9.05;8.25;;;15.70;99.90;;;;;;4996750;28;20252;-51
2021/06/26 04:57:55;;;;;;;9.32;8.43;;;15.70;99.90;;;;;;4996787;28;20209;-52
2021/06/26 05:00:24;;;;;;;8.25;7.53;;;15.80;99.90;;;;;;4996514;28;20209;-49
2021/06/26 05:02:52;;;;;;;8.52;7.75;;;15.80;99.90;;;;;;4996570;28;20214;-50
2021/06/26 05:05:20;;;;;;;12.10;10.18;;;15.90;99.90;;;;;;4996876;28;20293;-48
2021/06/26 05:07:47;;;;;;;11.05;9.98;;;16.00;99.90;;;;;;4996529;28;20241;-47
2021/06/26 05:10:17;;;;;;;10.95;9.82;;;16.10;99.90;;;;;;4996648;28;20214;-51
2021/06/26 05:12:45;;;;;;;10.18;9.18;;;16.30;99.90;;;;;;4996899;28;20304;-50
2021/06/26 05:15:15;;;;;;;10.50;9.55;;;16.40;99.90;;;;;;4996126;28;20649;-48
2021/06/26 05:17:43;;;;;;;11.50;9.45;;;16.50;99.90;;;;;;4996231;28;20263;-46
2021/06/26 05:20:16;;;;;;;10.68;9.57;;;16.60;99.90;;;;;;4996449;28;20428;-48
2021/06/26 05:22:44;;;;;;;10.27;9.38;;;16.70;99.90;;;;;;4996090;28;20221;-48
2021/06/26 05:25:12;;;;;;;9.20;8.35;;;16.80;99.90;;;;;;4996015;28;20213;-45
2021/06/26 05:27:42;;;;;;;7.82;7.13;;;16.90;99.90;;;;;;4995834;28;20735;-46
2021/06/26 05:30:12;;;;;;;8.98;8.18;;;17.10;99.90;;;;;;4996236;28;20378;-44
2021/06/26 05:32:40;;;;;;;9.13;8.23;;;17.20;99.90;;;;;;4996259;28;20297;-45
2021/06/26 05:35:09;;;;;;;9.10;8.27;;;17.30;99.90;;;;;;4995816;28;20233;-45
2021/06/26 05:37:37;;;;;;;9.43;8.27;;;17.40;99.90;;;;;;4995655;28;20662;-49
2021/06/26 05:40:06;;;;;;;10.45;9.43;;;17.50;99.90;;;;;;4995591;28;20310;-47
2021/06/26 05:42:34;;;;;;;12.23;11.10;;;17.60;99.90;;;;;;4995841;28;20217;-47
2021/06/26 05:45:05;;;;;;;12.27;10.98;;;17.70;99.90;;;;;;4995990;28;20265;-45
2021/06/26 05:47:33;;;;;;;11.57;10.27;;;17.80;99.90;;;;;;4995499;28;20232;-47
2021/06/26 05:50:00;;;;;;;14.15;12.68;;;17.90;99.90;;;;;;4995291;28;20224;-44
2021/06/26 05:52:28;;;;;;;12.75;11.07;;;17.90;99.90;;;;;;4995515;28;20237;-49
2021/06/26 05:54:56;;;;;;;15.77;13.93;;;18.00;99.90;;;;;;4995408;28;20562;-45
2021/06/26 05:57:24;;;;;;;14.00;12.60;;;18.00;99.90;;;;;;4995431;28;20207;-46
2021/06/26 05:59:52;;;;;;;17.05;15.25;;;18.00;99.90;;;;;;4995478;28;20245;-46
2021/06/26 06:02:22;;;;;;;16.65;15.00;;;18.10;99.90;;;;;;4994345;28;20296;-44
2021/06/26 06:04:49;;;;;;;15.57;13.98;;;18.20;99.90;;;;;;4995192;28;20772;-47
2021/06/26 06:07:18;;;;;;;16.95;15.25;;;18.30;99.90;;;;;;4994970;28;20245;-45
2021/06/26 06:09:46;;;;;;;19.50;16.98;;;18.30;99.90;;;;;;4995215;28;20308;-47
2021/06/26 06:12:14;;;;;;;20.13;17.67;;;18.30;99.90;;;;;;4994986;28;20246;-49
2021/06/26 06:14:42;;;;;;;20.17;16.48;;;18.40;99.90;;;;;;4995240;28;20647;-46
2021/06/26 06:17:10;;;;;;;19.83;17.80;;;18.40;99.90;;;;;;4994996;28;20650;-45
2021/06/26 06:19:40;;;;;;;18.85;16.65;;;18.50;99.90;;;;;;4994932;28;20221;-46
2021/06/26 06:22:09;;;;;;;20.92;18.85;;;18.50;99.90;;;;;;4995237;28;20293;-46
2021/06/26 06:24:37;;;;;;;20.83;18.67;;;18.60;99.90;;;;;;4995182;28;20294;-46
2021/06/26 06:27:05;;;;;;;21.08;18.88;;;18.70;99.90;;;;;;4994955;28;20210;-49
2021/06/26 06:29:33;;;;;;;20.05;17.95;;;18.80;99.90;;;;;;4994798;28;20261;-47
2021/06/26 06:32:01;;;;;;;22.15;19.75;;;18.80;99.90;;;;;;4994866;28;20206;-47
2021/06/26 06:34:29;;;;;;;21.20;19.10;;;18.90;99.90;;;;;;4995182;28;20228;-47
2021/06/26 06:36:59;;;;;;;25.33;22.70;;;18.90;99.90;;;;;;4994938;28;20216;-43
2021/06/26 06:39:27;;;;;;;24.55;21.77;;;19.00;99.90;;;;;;4994607;28;20680;-44
2021/06/26 06:41:55;;;;;;;25.30;22.75;;;19.10;99.90;;;;;;4994376;28;20210;-45
2021/06/26 06:44:24;;;;;;;36.45;32.40;;;19.10;99.90;;;;;;4994300;28;20292;-51
2021/06/26 06:46:51;;;;;;;27.73;24.52;;;19.10;99.90;;;;;;4994127;28;20687;-51
2021/06/26 06:49:19;;;;;;;28.40;25.42;;;19.10;99.90;;;;;;4994435;28;20230;-49
2021/06/26 06:51:47;;;;;;;25.52;22.80;;;19.30;99.90;;;;;;4994139;28;20341;-50
2021/06/26 06:54:17;;;;;;;27.08;23.92;;;19.40;99.90;;;;;;5289692;23;20329;-49
2021/06/26 06:56:45;;;;;;;27.85;24.85;;;19.50;99.90;;;;;;4993594;28;20292;-47
2021/06/26 06:59:12;;;;;;;26.70;23.67;;;19.60;99.90;;;;;;4993742;28;20252;-46
2021/06/26 07:01:40;;;;;;;25.20;22.65;;;19.70;99.90;;;;;;4993969;28;20305;-46
2021/06/26 07:04:08;;;;;;;25.83;22.75;;;19.70;99.90;;;;;;4993730;28;20542;-47
2021/06/26 07:06:37;;;;;;;30.40;24.17;;;20.00;99.90;;;;;;4993626;28;20221;-46
2021/06/26 07:09:05;;;;;;;25.52;22.88;;;20.20;99.90;;;;;;4994092;28;20226;-48
2021/06/26 07:11:34;;;;;;;22.90;20.70;;;20.40;99.90;;;;;;4993881;28;20708;-50
2021/06/26 07:14:02;;;;;;;23.42;21.08;;;20.50;99.90;;;;;;4992925;28;20314;-45
2021/06/26 07:16:30;;;;;;;24.60;22.20;;;20.60;99.90;;;;;;4993108;28;20260;-45
2021/06/26 07:18:58;;;;;;;26.65;23.98;;;20.60;99.90;;;;;;4993242;28;20252;-49
2021/06/26 07:21:26;;;;;;;26.95;23.08;;;20.60;99.90;;;;;;4993070;28;20210;-48
2021/06/26 07:23:54;;;;;;;23.10;20.75;;;20.70;99.90;;;;;;4993419;28;20305;-46
2021/06/26 07:26:22;;;;;;;22.23;20.15;;;20.70;99.90;;;;;;4992930;28;20254;-49
2021/06/26 07:28:52;;;;;;;22.23;20.05;;;20.70;99.90;;;;;;4993040;28;20280;-48
2021/06/26 07:31:20;;;;;;;22.83;20.70;;;20.70;99.90;;;;;;4992878;28;20226;-51
2021/06/26 07:33:48;;;;;;;23.60;21.23;;;20.70;99.90;;;;;;4992809;28;20214;-46
2021/06/26 07:36:16;;;;;;;21.10;19.10;;;20.70;99.90;;;;;;4993078;28;20214;-49
2021/06/26 07:38:43;;;;;;;21.00;18.98;;;20.70;99.90;;;;;;4992731;28;20216;-50
2021/06/26 07:41:13;;;;;;;20.23;18.23;;;20.90;99.90;;;;;;4992954;28;20283;-47
2021/06/26 07:43:41;;;;;;;19.25;17.45;;;21.10;99.90;;;;;;4992844;28;20309;-50
2021/06/26 07:46:10;;;;;;;20.88;18.75;;;21.20;99.90;;;;;;4992702;28;20664;-49
2021/06/26 07:48:38;;;;;;;19.80;17.90;;;21.30;99.90;;;;;;4992677;28;20285;-48
2021/06/26 07:51:06;;;;;;;18.25;16.42;;;21.40;99.90;;;;;;4992589;28;20297;-46
2021/06/26 07:53:34;;;;;;;19.02;17.23;;;21.40;99.90;;;;;;4992440;28;20280;-45
2021/06/26 07:56:02;;;;;;;19.67;17.38;;;21.30;99.90;;;;;;4992440;28;20721;-45
2021/06/26 07:58:30;;;;;;;17.52;15.98;;;21.30;99.90;;;;;;4995432;28;20695;-46
2021/06/26 08:00:58;;;;;;;17.67;16.05;;;21.30;99.90;;;;;;4993006;28;20237;-46
2021/06/26 08:03:28;;;;;;;17.85;16.15;;;21.40;99.90;;;;;;4992464;28;20210;-50
2021/06/26 08:05:56;;;;;;;19.08;17.27;;;21.60;99.90;;;;;;4992679;28;20241;-46
2021/06/26 08:08:24;;;;;;;17.80;16.17;;;21.60;99.90;;;;;;4992539;28;20261;-47
2021/06/26 08:10:52;;;;;;;16.77;15.18;;;21.70;99.90;;;;;;4992605;28;20583;-51
2021/06/26 08:13:20;;;;;;;16.95;15.30;;;21.90;99.90;;;;;;4992525;28;20388;-46
2021/06/26 08:15:48;;;;;;;18.30;16.40;;;22.00;99.90;;;;;;4992743;28;20210;-48
2021/06/26 08:18:16;;;;;;;17.50;15.88;;;22.10;99.90;;;;;;4992477;28;20292;-47
2021/06/26 08:20:46;;;;;;;16.38;14.98;;;22.20;99.90;;;;;;4992930;28;20233;-47
2021/06/26 08:23:14;;;;;;;13.98;12.73;;;22.40;99.90;;;;;;4992461;28;20235;-48
2021/06/26 08:25:42;;;;;;;13.93;12.63;;;22.40;99.90;;;;;;4992099;28;20669;-48
2021/06/26 08:28:10;;;;;;;16.33;14.88;;;22.50;99.90;;;;;;4992692;28;20206;-46
2021/06/26 08:30:38;;;;;;;15.68;14.27;;;22.50;99.90;;;;;;4992765;28;20598;-47
2021/06/26 08:33:06;;;;;;;17.75;15.95;;;22.50;99.90;;;;;;4992605;28;20238;-46
2021/06/26 08:35:34;;;;;;;14.20;12.80;;;22.50;99.90;;;;;;4993120;28;20214;-49
2021/06/26 08:38:04;;;;;;;13.63;12.32;;;22.50;99.90;;;;;;4992674;28;20696;-47
2021/06/26 08:40:32;;;;;;;13.68;12.27;;;22.50;99.90;;;;;;4992849;28;20677;-49
2021/06/26 08:43:00;;;;;;;13.00;11.90;;;22.50;99.90;;;;;;4992823;28;20218;-46
2021/06/26 08:45:28;;;;;;;15.68;14.23;;;22.60;99.90;;;;;;4992581;28;20217;-49
2021/06/26 08:47:58;;;;;;;13.25;12.05;;;22.80;99.90;;;;;;4992511;28;20206;-48
2021/06/26 08:50:28;;;;;;;12.43;11.32;;;23.00;99.90;;;;;;4992543;28;20304;-48
2021/06/26 08:52:56;;;;;;;12.07;11.02;;;23.10;99.90;;;;;;4992000;28;20216;-47
2021/06/26 08:55:26;;;;;;;11.27;10.27;;;23.10;99.90;;;;;;4992605;28;20289;-46
2021/06/26 08:57:54;;;;;;;11.48;10.40;;;23.20;99.90;;;;;;4992044;28;20241;-47
2021/06/26 09:00:24;;;;;;;13.57;12.23;;;23.10;99.90;;;;;;4991879;28;20261;-46
2021/06/26 09:02:52;;;;;;;11.90;10.75;;;23.10;99.90;;;;;;4991892;28;20694;-44
2021/06/26 09:05:27;;;;;;;10.90;10.00;;;23.10;99.90;;;;;;4992225;28;20662;-45
2021/06/26 09:08:08;;;;;;;10.02;9.13;;;23.10;99.90;;;;;;4992192;28;20213;-48
2021/06/26 09:10:39;;;;;;;11.15;9.95;;;23.10;99.90;;;;;;4991996;28;20225;-46
2021/06/26 09:13:16;;;;;;;10.68;9.82;;;23.20;99.90;;;;;;4992498;28;20241;-46
2021/06/26 09:15:45;;;;;;;10.70;9.90;;;23.30;99.50;;;;;;4992252;28;20225;-45
2021/06/26 09:18:16;;;;;;;9.48;8.68;;;23.40;99.50;;;;;;4991873;28;20345;-45
2021/06/26 09:20:48;;;;;;;8.73;7.93;;;23.60;99.40;;;;;;4991935;28;20697;-46
2021/06/26 09:23:21;;;;;;;8.45;7.65;;;23.80;99.10;;;;;;4992085;28;20226;-49
2021/06/26 09:26:04;;;;;;;9.50;8.63;;;23.70;98.70;;;;;;4992384;28;20217;-45
2021/06/26 09:28:32;;;;;;;9.63;8.73;;;23.50;98.80;;;;;;4991997;28;20268;-47
2021/06/26 09:31:04;;;;;;;7.68;6.97;;;23.50;99.00;;;;;;4994520;28;20592;-51
2021/06/26 09:33:32;;;;;;;8.15;7.35;;;23.50;98.90;;;;;;4995510;28;20225;-51
2021/06/26 09:36:06;;;;;;;7.35;6.75;;;23.50;98.50;;;;;;4992997;28;20233;-47
2021/06/26 09:38:54;;;;;;;7.68;7.05;;;23.50;98.00;;;;;;4995644;28;20210;-47
2021/06/26 09:41:23;;;;;;;8.52;7.75;;;23.50;98.10;;;;;;4995049;28;20206;-46
2021/06/26 09:43:51;;;;;;;8.32;7.63;;;23.70;97.90;;;;;;4995422;28;20760;-46
2021/06/26 09:46:20;;;;;;;8.45;6.95;;;23.70;97.80;;;;;;4995565;28;20217;-47
2021/06/26 09:48:50;;;;;;;7.82;7.22;;;23.70;97.90;;;;;;4995201;28;20692;-46
2021/06/26 09:51:23;;;;;;;7.70;7.10;;;24.00;97.80;;;;;;4995505;28;20261;-49
2021/06/26 09:53:53;;;;;;;7.88;7.18;;;24.10;97.60;;;;;;4995139;28;20233;-45
2021/06/26 09:56:23;;;;;;;7.88;7.18;;;24.30;97.30;;;;;;4995065;28;20209;-46
2021/06/26 09:58:53;;;;;;;7.22;6.55;;;24.20;97.30;;;;;;4994979;28;20758;-47
2021/06/26 10:01:21;;;;;;;7.20;6.50;;;24.30;97.20;;;;;;4995067;28;20206;-47
2021/06/26 10:03:50;;;;;;;9.43;6.03;;;24.30;96.90;;;;;;4994946;28;20210;-51
2021/06/26 10:06:20;;;;;;;6.13;5.65;;;24.30;96.80;;;;;;4995584;28;20239;-48
2021/06/26 10:08:49;;;;;;;6.47;6.05;;;24.30;96.40;;;;;;4994890;28;20210;-49
2021/06/26 10:11:17;;;;;;;6.22;5.72;;;24.30;96.20;;;;;;4994788;28;20325;-48
2021/06/26 10:13:47;;;;;;;6.85;6.25;;;24.40;96.00;;;;;;4994917;28;20276;-48
2021/06/26 10:16:16;;;;;;;6.32;5.63;;;24.50;95.90;;;;;;4994817;28;20216;-46
2021/06/26 10:18:44;;;;;;;6.10;5.60;;;24.60;95.70;;;;;;4994848;28;20214;-48
2021/06/26 10:21:13;;;;;;;7.35;5.28;;;24.60;95.20;;;;;;4994865;28;20560;-48
2021/06/26 10:23:41;;;;;;;6.82;6.22;;;24.70;95.10;;;;;;4995534;28;20203;-47
2021/06/26 10:26:10;;;;;;;6.30;5.80;;;24.70;94.80;;;;;;4995022;28;20214;-47
2021/06/26 10:28:49;;;;;;;6.05;5.55;;;24.70;94.50;;;;;;4994472;28;20310;-46
2021/06/26 10:31:28;;;;;;;7.78;7.03;;;24.80;94.40;;;;;;4994313;28;20747;-46
2021/06/26 10:34:12;;;;;;;6.95;6.35;;;24.90;94.30;;;;;;4994210;28;20367;-51
2021/06/26 10:36:43;;;;;;;7.80;7.13;;;24.90;94.50;;;;;;4996392;28;20304;-51
2021/06/26 10:39:22;;;;;;;6.13;5.63;;;24.90;94.40;;;;;;4994165;28;20619;-51
2021/06/26 10:42:01;;;;;;;8.75;7.95;;;25.00;94.40;;;;;;4994142;28;20658;-49
2021/06/26 10:44:45;;;;;;;6.32;5.82;;;25.10;94.10;;;;;;4995045;28;20210;-49
2021/06/26 10:47:14;;;;;;;6.28;5.72;;;25.10;93.80;;;;;;4993576;28;20213;-48
2021/06/26 10:49:43;;;;;;;5.30;4.90;;;25.10;93.60;;;;;;4994018;28;20210;-48
2021/06/26 10:52:14;;;;;;;7.20;6.60;;;25.20;93.40;;;;;;4994182;28;20234;-49
2021/06/26 10:54:56;;;;;;;6.43;4.55;;;25.40;93.10;;;;;;4994372;28;20708;-47
2021/06/26 10:57:26;;;;;;;5.47;4.97;;;25.50;92.90;;;;;;4994377;28;20229;-45
2021/06/26 10:59:57;;;;;;;9.75;6.05;;;25.50;92.80;;;;;;4994297;28;20273;-47
2021/06/26 11:02:25;;;;;;;5.50;5.10;;;25.40;92.70;;;;;;4994182;28;20297;-51
2021/06/26 11:04:53;;;;;;;5.45;4.95;;;25.30;92.70;;;;;;4994026;28;20256;-52
2021/06/26 11:07:21;;;;;;;5.90;5.40;;;25.40;92.50;;;;;;4993848;28;20256;-49
2021/06/26 11:09:50;;;;;;;5.63;5.22;;;25.30;92.40;;;;;;4994159;28;20294;-47
2021/06/26 11:12:18;;;;;;;5.00;4.60;;;25.40;92.40;;;;;;4994187;28;20220;-49
2021/06/26 11:14:51;;;;;;;6.03;5.53;;;25.60;92.30;;;;;;4993901;28;20217;-48
2021/06/26 11:17:23;;;;;;;6.05;5.65;;;25.90;92.10;;;;;;4993855;28;20684;-46
2021/06/26 11:19:54;;;;;;;5.13;4.65;;;26.10;91.80;;;;;;4994661;28;20214;-48
2021/06/26 11:22:22;;;;;;;6.03;5.43;;;26.00;91.80;;;;;;4994629;28;20206;-52
2021/06/26 11:25:01;;;;;;;5.03;4.28;;;25.80;91.90;;;;;;4993888;28;20218;-50
2021/06/26 11:27:29;;;;;;;7.03;6.53;;;25.80;91.70;;;;;;4993368;28;20656;-53
2021/06/26 11:32:46;;;;;;;5.03;4.68;;;26.00;90.70;;;;;;5084859;23;20246;-47
2021/06/26 11:35:15;;;;;;;5.18;4.78;;;25.90;91.00;;;;;;4992693;28;20252;-50
2021/06/26 11:37:45;;;;;;;4.63;4.28;;;25.70;90.80;;;;;;4994678;28;20202;-46
2021/06/26 11:40:19;;;;;;;5.50;5.10;;;25.60;90.80;;;;;;4993008;28;20681;-47
2021/06/26 11:42:55;;;;;;;5.22;4.72;;;25.70;90.80;;;;;;4992839;28;20269;-47
2021/06/26 11:45:25;;;;;;;5.20;4.80;;;25.90;90.70;;;;;;4992938;28;20214;-52
2021/06/26 11:48:08;;;;;;;5.22;4.78;;;26.00;90.30;;;;;;4993034;28;20278;-48
2021/06/26 11:50:38;;;;;;;4.70;4.30;;;26.10;89.90;;;;;;4992565;28;20226;-46
2021/06/26 11:53:08;;;;;;;5.75;5.00;;;26.10;90.10;;;;;;4992602;28;20225;-46
2021/06/26 11:55:41;;;;;;;5.43;5.03;;;26.10;90.10;;;;;;4992848;28;20210;-47
2021/06/26 11:58:09;;;;;;;4.22;3.92;;;26.20;89.90;;;;;;4992485;28;20210;-47
2021/06/26 12:00:37;;;;;;;4.40;4.10;;;26.20;89.00;;;;;;4992051;28;20296;-49
2021/06/26 12:03:17;;;;;;;4.72;4.40;;;26.00;89.00;;;;;;4992708;28;20297;-46
2021/06/26 12:05:46;;;;;;;5.03;4.63;;;25.90;89.30;;;;;;4992725;28;20237;-49
2021/06/26 12:08:17;;;;;;;4.78;4.38;;;26.00;89.20;;;;;;4992556;28;20330;-48
2021/06/26 12:10:47;;;;;;;4.95;4.45;;;26.10;89.10;;;;;;4992331;28;20710;-49
2021/06/26 12:13:19;;;;;;;4.38;4.07;;;26.00;89.30;;;;;;4992129;28;20214;-47
2021/06/26 12:15:48;;;;;;;4.95;4.65;;;26.00;89.30;;;;;;4992276;28;20286;-49
2021/06/26 12:18:19;;;;;;;5.07;4.68;;;25.90;89.60;;;;;;4992387;28;20705;-50
2021/06/26 12:20:47;;;;;;;4.82;4.35;;;25.90;89.40;;;;;;4992530;28;20206;-45
2021/06/26 12:23:15;;;;;;;4.05;3.75;;;26.00;89.20;;;;;;4992486;28;20312;-45
2021/06/26 12:25:45;;;;;;;5.80;5.30;;;26.20;88.40;;;;;;4992285;28;20224;-46
2021/06/26 12:28:14;;;;;;;6.63;5.22;;;26.40;87.70;;;;;;4992265;28;20309;-49
2021/06/26 12:30:43;;;;;;;5.07;3.88;;;26.60;86.80;;;;;;4992057;28;20210;-47
2021/06/26 12:33:12;;;;;;;10.32;9.52;;;26.60;86.30;;;;;;4992258;28;20238;-48
2021/06/26 12:35:42;;;;;;;5.15;4.75;;;26.60;85.70;;;;;;4992100;28;20206;-49
2021/06/26 12:38:09;;;;;;;4.85;4.45;;;26.40;85.90;;;;;;4992252;28;20705;-49
2021/06/26 12:40:41;;;;;;;4.78;3.92;;;26.20;86.70;;;;;;4992031;28;20614;-45
2021/06/26 12:43:12;;;;;;;4.47;4.18;;;26.20;86.60;;;;;;4992495;28;20666;-49
2021/06/26 12:45:42;;;;;;;4.25;3.85;;;26.30;86.20;;;;;;4992089;28;20214;-48
2021/06/26 12:48:13;;;;;;;4.10;3.70;;;26.40;85.40;;;;;;4992374;28;20210;-50
2021/06/26 12:51:00;;;;;;;4.57;4.10;;;26.60;84.90;;;;;;4992231;28;20568;-48
2021/06/26 12:53:36;;;;;;;3.58;3.38;;;26.90;85.10;;;;;;4991948;28;20390;-50